Weather at Bartlesville Municipal Airport

Public forecast

Using degrees Fahrenheit for public forecast. Weather courtesy of forecast.io.

Current aviation weather report (METAR) for Bartlesville Municipal Airport

2024/05/19 19:53 (retrieved 15 minutes ago)

KBVO 191953Z AUTO 13013G22KT 10SM CLR 31/19 A2988 RMK AO2 SLP107 T03060189

Aviation forecast (TAF) for Bartlesville Municipal Airport

2024/05/19 18:22 (retrieved 2 hours ago)

TAF KBVO 191720Z 1918/2018 16013G21KT P6SM FEW050 FM200100 17010KT P6SM SCT080 BKN150 TEMPO 2004/2008 VRB15G25KT 3SM TSRA BR BKN025CB FM201400 17011G18KT P6SM SCT035